Time,TemperatureF,DewpointF,PressureIn,WindDirection,WindDirectionDegrees,WindSpeedMPH,WindSpeedGustMPH,Humidity,HourlyPrecipIn,Conditions,Clouds,dailyrainin,SoftwareType,DateUTC
2014-07-13 00:01:00,70.3,57.1,29.85,WSW,248,0.0,0.0,63,0.00,,---,0.00,VWS V13.01,2014-07-13 07:01:00,
2014-07-13 00:06:00,70.3,57.6,29.85,WSW,248,0.0,0.0,64,0.00,,---,0.00,VWS V13.01,2014-07-13 07:06:00,
2014-07-13 00:11:00,70.1,57.4,29.85,WSW,248,0.0,0.0,64,0.00,,---,0.00,VWS V13.01,2014-07-13 07:11:00,
2014-07-13 00:16:00,70.1,57.8,29.85,WSW,248,0.0,0.0,65,0.00,,---,0.00,VWS V13.01,2014-07-13 07:16:00,
2014-07-13 00:21:00,69.9,57.6,29.84,WSW,248,0.0,0.0,65,0.00,,---,0.00,VWS V13.01,2014-07-13 07:21:00,
2014-07-13 00:26:00,69.8,57.5,29.84,WSW,248,0.0,0.0,65,0.00,,---,0.00,VWS V13.01,2014-07-13 07:26:00,
2014-07-13 00:31:00,69.8,57.5,29.84,WSW,248,0.0,0.0,65,0.00,,---,0.00,VWS V13.01,2014-07-13 07:31:00,
2014-07-13 00:36:00,69.6,57.8,29.84,WSW,248,0.0,0.0,66,0.00,,---,0.00,VWS V13.01,2014-07-13 07:36:00,
2014-07-13 00:41:00,69.6,57.8,29.84,WSW,248,0.0,0.0,66,0.00,,---,0.00,VWS V13.01,2014-07-13 07:41:00,
2014-07-13 00:46:00,69.4,58.0,29.84,WSW,248,0.0,0.0,67,0.00,,---,0.00,VWS V13.01,2014-07-13 07:46:00,
2014-07-13 00:51:00,69.1,57.7,29.84,WSW,248,0.0,0.0,67,0.00,,---,0.00,VWS V13.01,2014-07-13 07:51:00,
2014-07-13 00:56:00,68.8,57.0,29.84,WSW,248,0.0,0.0,66,0.00,,---,0.00,VWS V13.01,2014-07-13 07:56:00,
2014-07-13 01:01:00,68.8,57.0,29.84,WSW,248,0.0,0.0,66,0.00,,---,0.00,VWS V13.01,2014-07-13 08:01:00,
2014-07-13 01:06:00,68.4,56.6,29.84,WSW,248,0.0,0.0,66,0.00,,---,0.00,VWS V13.01,2014-07-13 08:06:00,
2014-07-13 01:11:00,68.3,56.9,29.84,WSW,248,0.0,0.0,67,0.00,,---,0.00,VWS V13.01,2014-07-13 08:11:00,
2014-07-13 01:16:00,67.9,56.5,29.84,WSW,248,0.0,0.0,67,0.00,,---,0.00,VWS V13.01,2014-07-13 08:16:00,
2014-07-13 01:21:00,67.9,57.0,29.85,WSW,248,0.0,0.0,68,0.00,,---,0.00,VWS V13.01,2014-07-13 08:21:00,
2014-07-13 01:26:00,67.8,56.9,29.85,WSW,248,0.0,0.0,68,0.00,,---,0.00,VWS V13.01,2014-07-13 08:26:00,
2014-07-13 01:31:00,67.6,56.7,29.85,WSW,248,0.0,0.0,68,0.00,,---,0.00,VWS V13.01,2014-07-13 08:31:00,
2014-07-13 01:36:00,67.6,57.1,29.84,WSW,248,0.0,0.0,69,0.00,,---,0.00,VWS V13.01,2014-07-13 08:36:00,
2014-07-13 01:41:00,67.4,57.3,29.84,WSW,248,0.0,0.0,70,0.00,,---,0.00,VWS V13.01,2014-07-13 08:41:00,
2014-07-13 01:46:00,67.1,57.0,29.84,WSW,248,0.0,0.0,70,0.00,,---,0.00,VWS V13.01,2014-07-13 08:46:00,
2014-07-13 01:51:00,67.1,57.0,29.84,WSW,248,0.0,0.0,70,0.00,,---,0.00,VWS V13.01,2014-07-13 08:51:00,
2014-07-13 01:56:00,66.9,56.8,29.84,WSW,248,0.0,0.0,70,0.00,,---,0.00,VWS V13.01,2014-07-13 08:56:00,
2014-07-13 02:01:00,66.8,56.7,29.84,WSW,248,0.0,0.0,70,0.00,,---,0.00,VWS V13.01,2014-07-13 09:01:00,
2014-07-13 02:06:00,66.6,56.9,29.84,WSW,248,0.0,0.0,71,0.00,,---,0.00,VWS V13.01,2014-07-13 09:06:00,
2014-07-13 02:11:00,66.4,56.7,29.84,WSW,248,0.0,0.0,71,0.00,,---,0.00,VWS V13.01,2014-07-13 09:11:00,
2014-07-13 02:16:00,66.3,56.6,29.84,WSW,248,0.0,0.0,71,0.00,,---,0.00,VWS V13.01,2014-07-13 09:16:00,
2014-07-13 02:21:00,66.3,56.6,29.84,WSW,248,0.0,0.0,71,0.00,,---,0.00,VWS V13.01,2014-07-13 09:21:00,
2014-07-13 02:26:00,66.3,57.0,29.84,WSW,248,0.0,0.0,72,0.00,,---,0.00,VWS V13.01,2014-07-13 09:26:00,
2014-07-13 02:31:00,66.0,56.7,29.84,WSW,248,0.0,0.0,72,0.00,,---,0.00,VWS V13.01,2014-07-13 09:31:00,
2014-07-13 02:36:00,66.0,56.7,29.84,WSW,248,0.0,0.0,72,0.00,,---,0.00,VWS V13.01,2014-07-13 09:36:00,
2014-07-13 02:41:00,65.8,56.5,29.84,WSW,248,0.0,0.0,72,0.00,,---,0.00,VWS V13.01,2014-07-13 09:41:00,
2014-07-13 02:46:00,65.8,56.5,29.84,WSW,248,0.0,0.0,72,0.00,,---,0.00,VWS V13.01,2014-07-13 09:46:00,
2014-07-13 02:51:00,65.6,56.7,29.84,WSW,248,0.0,0.0,73,0.00,,---,0.00,VWS V13.01,2014-07-13 09:51:00,
2014-07-13 02:56:00,65.5,56.6,29.84,WSW,248,0.0,0.0,73,0.00,,---,0.00,VWS V13.01,2014-07-13 09:56:00,
2014-07-13 03:01:00,65.3,56.0,29.84,WSW,248,0.0,0.0,72,0.00,,---,0.00,VWS V13.01,2014-07-13 10:01:00,
2014-07-13 03:06:00,65.2,56.0,29.84,WSW,248,0.0,0.0,72,0.00,,---,0.00,VWS V13.01,2014-07-13 10:06:00,
2014-07-13 03:11:00,65.2,56.0,29.84,WSW,248,0.0,0.0,72,0.00,,---,0.00,VWS V13.01,2014-07-13 10:11:00,
2014-07-13 03:16:00,65.2,56.0,29.84,WSW,248,0.0,0.0,72,0.00,,---,0.00,VWS V13.01,2014-07-13 10:16:00,
2014-07-13 03:21:00,65.0,55.8,29.81,WSW,248,0.0,0.0,72,0.00,,---,0.00,VWS V13.01,2014-07-13 10:21:00,
2014-07-13 03:26:00,64.8,56.0,29.81,WSW,248,0.0,0.0,73,0.00,,---,0.00,VWS V13.01,2014-07-13 10:26:00,
2014-07-13 03:31:00,64.7,55.9,29.81,WSW,248,0.0,0.0,73,0.00,,---,0.00,VWS V13.01,2014-07-13 10:31:00,
2014-07-13 03:36:00,64.7,55.9,29.81,WSW,248,0.0,0.0,73,0.00,,---,0.00,VWS V13.01,2014-07-13 10:36:00,
2014-07-13 03:41:00,64.5,55.7,29.81,WSW,248,0.0,0.0,73,0.00,,---,0.00,VWS V13.01,2014-07-13 10:41:00,
2014-07-13 03:46:00,64.3,55.5,29.81,WSW,248,0.0,0.0,73,0.00,,---,0.00,VWS V13.01,2014-07-13 10:46:00,
2014-07-13 03:51:00,64.3,55.5,29.81,WSW,248,0.0,0.0,73,0.00,,---,0.00,VWS V13.01,2014-07-13 10:51:00,
2014-07-13 03:56:00,64.3,55.8,29.81,WSW,248,0.0,0.0,74,0.00,,---,0.00,VWS V13.01,2014-07-13 10:56:00,
2014-07-13 04:01:00,64.2,55.8,29.81,WSW,248,0.0,0.0,74,0.00,,---,0.00,VWS V13.01,2014-07-13 11:01:00,
2014-07-13 04:06:00,64.2,55.8,29.81,WSW,248,0.0,0.0,74,0.00,,---,0.00,VWS V13.01,2014-07-13 11:06:00,
2014-07-13 04:11:00,64.2,55.8,29.81,WSW,248,0.0,0.0,74,0.00,,---,0.00,VWS V13.01,2014-07-13 11:11:00,
2014-07-13 04:16:00,64.0,55.6,29.81,WSW,248,0.0,0.0,74,0.00,,---,0.00,VWS V13.01,2014-07-13 11:16:00,
2014-07-13 04:21:00,64.0,55.6,29.81,WSW,248,0.0,0.0,74,0.00,,---,0.00,VWS V13.01,2014-07-13 11:21:00,
2014-07-13 04:26:00,63.9,55.5,29.81,WSW,248,0.0,0.0,74,0.00,,---,0.00,VWS V13.01,2014-07-13 11:26:00,
2014-07-13 04:31:00,63.7,55.3,29.81,WSW,248,0.0,0.0,74,0.00,,---,0.00,VWS V13.01,2014-07-13 11:31:00,
2014-07-13 04:36:00,63.7,54.9,29.81,WSW,248,0.0,0.0,73,0.00,,---,0.00,VWS V13.01,2014-07-13 11:36:00,
2014-07-13 04:41:00,63.7,54.9,29.81,WSW,248,0.0,0.0,73,0.00,,---,0.00,VWS V13.01,2014-07-13 11:41:00,
2014-07-13 04:46:00,63.7,54.9,29.81,WSW,248,0.0,0.0,73,0.00,,---,0.00,VWS V13.01,2014-07-13 11:46:00,
2014-07-13 04:51:00,63.5,54.7,29.81,WSW,248,0.0,0.0,73,0.00,,---,0.00,VWS V13.01,2014-07-13 11:51:00,
2014-07-13 04:56:00,63.5,55.1,29.81,WSW,248,0.0,0.0,74,0.00,,---,0.00,VWS V13.01,2014-07-13 11:56:00,
2014-07-13 05:01:00,63.5,55.1,29.81,WSW,248,0.0,0.0,74,0.00,,---,0.00,VWS V13.01,2014-07-13 12:01:00,
2014-07-13 05:06:00,63.4,55.0,29.81,WSW,248,0.0,0.0,74,0.00,,---,0.00,VWS V13.01,2014-07-13 12:06:00,
2014-07-13 05:11:00,63.4,55.0,29.81,WSW,248,0.0,0.0,74,0.00,,---,0.00,VWS V13.01,2014-07-13 12:11:00,
2014-07-13 05:16:00,63.2,54.8,29.81,WSW,248,0.0,0.0,74,0.00,,---,0.00,VWS V13.01,2014-07-13 12:16:00,
2014-07-13 05:21:00,63.2,54.8,29.81,WSW,248,0.0,0.0,74,0.00,,---,0.00,VWS V13.01,2014-07-13 12:21:00,
2014-07-13 05:26:00,63.2,55.2,29.81,WSW,248,0.0,0.0,75,0.00,,---,0.00,VWS V13.01,2014-07-13 12:26:00,
2014-07-13 05:31:00,63.2,55.2,29.81,WSW,248,0.0,0.0,75,0.00,,---,0.00,VWS V13.01,2014-07-13 12:31:00,
2014-07-13 05:36:00,63.2,55.2,29.81,WSW,248,0.0,0.0,75,0.00,,---,0.00,VWS V13.01,2014-07-13 12:36:00,
2014-07-13 05:41:00,63.1,54.7,29.81,WSW,248,0.0,0.0,74,0.00,,---,0.00,VWS V13.01,2014-07-13 12:41:00,
2014-07-13 05:46:00,62.9,54.1,29.81,WSW,248,0.0,0.0,73,0.00,,---,0.00,VWS V13.01,2014-07-13 12:46:00,
2014-07-13 05:51:00,62.7,53.9,29.81,WSW,248,0.0,0.0,73,0.00,,---,0.00,VWS V13.01,2014-07-13 12:51:00,
2014-07-13 05:56:00,62.6,53.8,29.81,WSW,248,0.0,0.0,73,0.00,,---,0.00,VWS V13.01,2014-07-13 12:56:00,
2014-07-13 06:01:00,62.6,54.2,29.81,WSW,248,0.0,0.0,74,0.00,,---,0.00,VWS V13.01,2014-07-13 13:01:00,
2014-07-13 06:06:00,62.6,54.2,29.81,WSW,248,0.0,0.0,74,0.00,,---,0.00,VWS V13.01,2014-07-13 13:06:00,
2014-07-13 06:11:00,62.4,53.6,29.81,WSW,248,0.0,0.0,73,0.00,,---,0.00,VWS V13.01,2014-07-13 13:11:00,
2014-07-13 06:16:00,62.4,54.0,29.81,WSW,248,0.0,0.0,74,0.00,,---,0.00,VWS V13.01,2014-07-13 13:16:00,
2014-07-13 06:21:00,62.4,54.0,29.82,WSW,248,0.0,0.0,74,0.00,,---,0.00,VWS V13.01,2014-07-13 13:21:00,
2014-07-13 06:26:00,62.4,54.0,29.82,WSW,248,0.0,0.0,74,0.00,,---,0.00,VWS V13.01,2014-07-13 13:26:00,
2014-07-13 06:31:00,62.4,53.6,29.82,WSW,248,0.0,0.0,73,0.00,,---,0.00,VWS V13.01,2014-07-13 13:31:00,
2014-07-13 06:36:00,62.6,54.2,29.82,WSW,248,0.0,0.0,74,0.00,,---,0.00,VWS V13.01,2014-07-13 13:36:00,
2014-07-13 06:41:00,62.7,54.3,29.82,WSW,248,0.0,0.0,74,0.00,,---,0.00,VWS V13.01,2014-07-13 13:41:00,
2014-07-13 06:46:00,63.1,54.7,29.82,WSW,248,0.0,0.0,74,0.00,,---,0.00,VWS V13.01,2014-07-13 13:46:00,
2014-07-13 06:51:00,63.2,54.8,29.82,WSW,248,0.0,0.0,74,0.00,,---,0.00,VWS V13.01,2014-07-13 13:51:00,
2014-07-13 06:56:00,63.5,54.7,29.82,WSW,248,0.0,0.0,73,0.00,,---,0.00,VWS V13.01,2014-07-13 13:56:00,
2014-07-13 07:01:00,63.9,55.5,29.82,WSW,248,0.0,0.0,74,0.00,,---,0.00,VWS V13.01,2014-07-13 14:01:00,
2014-07-13 07:06:00,64.2,55.8,29.81,WSW,248,0.0,0.0,74,0.00,,---,0.00,VWS V13.01,2014-07-13 14:06:00,
2014-07-13 07:11:00,64.5,54.9,29.81,WSW,248,0.0,0.0,71,0.00,,---,0.00,VWS V13.01,2014-07-13 14:11:00,
2014-07-13 07:16:00,65.2,55.6,29.81,WSW,248,0.0,0.0,71,0.00,,---,0.00,VWS V13.01,2014-07-13 14:16:00,
2014-07-13 07:21:00,65.6,55.6,29.81,WSW,248,0.0,0.0,70,0.00,,---,0.00,VWS V13.01,2014-07-13 14:21:00,
2014-07-13 07:26:00,66.1,55.2,29.81,WSW,248,0.0,0.0,68,0.00,,---,0.00,VWS V13.01,2014-07-13 14:26:00,
2014-07-13 07:31:00,66.8,55.9,29.81,WSW,248,0.0,0.0,68,0.00,,---,0.00,VWS V13.01,2014-07-13 14:31:00,
2014-07-13 07:36:00,67.3,56.0,29.81,WSW,248,0.0,0.0,67,0.00,,---,0.00,VWS V13.01,2014-07-13 14:36:00,
2014-07-13 07:41:00,67.8,56.0,29.81,WSW,248,0.0,0.0,66,0.00,,---,0.00,VWS V13.01,2014-07-13 14:41:00,
2014-07-13 07:46:00,68.4,56.6,29.81,WSW,248,0.0,0.0,66,0.00,,---,0.00,VWS V13.01,2014-07-13 14:46:00,
2014-07-13 07:51:00,69.1,55.5,29.81,WSW,248,0.0,0.0,62,0.00,,---,0.00,VWS V13.01,2014-07-13 14:51:00,
2014-07-13 07:56:00,69.9,56.8,29.81,WSW,248,0.0,0.0,63,0.00,,---,0.00,VWS V13.01,2014-07-13 14:56:00,
2014-07-13 08:01:00,70.6,57.4,29.81,WSW,248,0.0,0.0,63,0.00,,---,0.00,VWS V13.01,2014-07-13 15:01:00,
2014-07-13 08:06:00,71.1,57.9,29.81,WSW,248,0.0,0.0,63,0.00,,---,0.00,VWS V13.01,2014-07-13 15:06:00,
2014-07-13 08:11:00,71.8,57.2,29.81,WSW,248,0.0,0.0,60,0.00,,---,0.00,VWS V13.01,2014-07-13 15:11:00,
2014-07-13 08:16:00,72.5,56.9,29.81,WSW,248,0.0,0.0,58,0.00,,---,0.00,VWS V13.01,2014-07-13 15:16:00,
2014-07-13 08:21:00,72.5,58.8,29.80,WSW,248,0.0,0.0,62,0.00,,---,0.00,VWS V13.01,2014-07-13 15:21:00,
2014-07-13 08:26:00,72.5,58.8,29.80,WSW,248,0.0,0.0,62,0.00,,---,0.00,VWS V13.01,2014-07-13 15:26:00,
2014-07-13 08:31:00,73.9,59.2,29.80,WSW,248,0.0,0.0,60,0.00,,---,0.00,VWS V13.01,2014-07-13 15:31:00,
2014-07-13 08:36:00,73.9,59.2,29.80,WSW,248,0.0,0.0,60,0.00,,---,0.00,VWS V13.01,2014-07-13 15:36:00,
2014-07-13 08:41:00,73.9,59.2,29.80,WSW,248,0.0,0.0,60,0.00,,---,0.00,VWS V13.01,2014-07-13 15:41:00,
2014-07-13 08:46:00,73.9,59.2,29.80,WSW,248,0.0,0.0,60,0.00,,---,0.00,VWS V13.01,2014-07-13 15:46:00,
2014-07-13 08:51:00,73.9,59.2,29.80,WSW,248,0.0,0.0,60,0.00,,---,0.00,VWS V13.01,2014-07-13 15:51:00,
2014-07-13 08:56:00,73.9,59.2,29.80,WSW,248,0.0,0.0,60,0.00,,---,0.00,VWS V13.01,2014-07-13 15:56:00,
2014-07-13 09:01:00,73.9,59.2,29.80,WSW,248,0.0,0.0,60,0.00,,---,0.00,VWS V13.01,2014-07-13 16:01:00,
2014-07-13 09:06:00,78.3,63.3,29.80,WSW,248,0.0,0.0,60,0.00,,---,0.00,VWS V13.01,2014-07-13 16:06:00,
2014-07-13 09:11:00,78.3,63.3,29.80,WSW,248,3.0,3.0,60,0.00,,---,0.00,VWS V13.01,2014-07-13 16:11:00,
2014-07-13 09:16:00,79.9,56.1,29.80,WSW,248,0.0,3.0,44,0.00,,---,0.00,VWS V13.01,2014-07-13 16:16:00,
2014-07-13 09:21:00,79.9,55.4,29.79,WSW,248,0.0,3.0,43,0.00,,---,0.00,VWS V13.01,2014-07-13 16:21:00,
2014-07-13 09:26:00,81.1,55.9,29.79,WSW,248,0.0,3.0,42,0.00,,---,0.00,VWS V13.01,2014-07-13 16:26:00,
2014-07-13 09:31:00,81.1,55.2,29.79,WSW,248,0.0,3.0,41,0.00,,---,0.00,VWS V13.01,2014-07-13 16:31:00,
2014-07-13 09:36:00,81.1,55.2,29.78,WSW,248,0.0,0.0,41,0.00,,---,0.00,VWS V13.01,2014-07-13 16:36:00,
2014-07-13 09:41:00,81.1,55.2,29.78,WSW,248,0.0,0.0,41,0.00,,---,0.00,VWS V13.01,2014-07-13 16:41:00,
2014-07-13 09:46:00,81.1,55.2,29.78,East,88,0.0,0.0,41,0.00,,---,0.00,VWS V13.01,2014-07-13 16:46:00,
2014-07-13 09:51:00,81.1,55.2,29.79,North,7,0.0,0.0,41,0.00,,---,0.00,VWS V13.01,2014-07-13 16:51:00,
2014-07-13 09:56:00,85.7,59.3,29.79,North,8,0.0,0.0,41,0.00,,---,0.00,VWS V13.01,2014-07-13 16:56:00,
2014-07-13 10:01:00,85.7,59.3,29.79,North,8,0.0,0.0,41,0.00,,---,0.00,VWS V13.01,2014-07-13 17:01:00,
2014-07-13 10:06:00,85.7,59.3,29.78,WNW,302,0.0,0.0,41,0.00,,---,0.00,VWS V13.01,2014-07-13 17:06:00,
2014-07-13 10:11:00,85.7,59.3,29.78,WNW,302,0.0,0.0,41,0.00,,---,0.00,VWS V13.01,2014-07-13 17:11:00,
2014-07-13 10:16:00,87.6,55.0,29.78,NW,304,0.0,0.0,33,0.00,,---,0.00,VWS V13.01,2014-07-13 17:16:00,
2014-07-13 10:21:00,87.6,55.0,29.78,NW,305,0.0,0.0,33,0.00,,---,0.00,VWS V13.01,2014-07-13 17:21:00,
2014-07-13 10:26:00,87.6,55.0,29.78,NW,304,0.0,0.0,33,0.00,,---,0.00,VWS V13.01,2014-07-13 17:26:00,
2014-07-13 10:31:00,87.6,55.0,29.78,NW,304,0.0,0.0,33,0.00,,---,0.00,VWS V13.01,2014-07-13 17:31:00,
2014-07-13 10:36:00,87.6,55.0,29.77,NW,304,0.0,0.0,33,0.00,,---,0.00,VWS V13.01,2014-07-13 17:36:00,
2014-07-13 10:41:00,87.6,55.0,29.77,NW,304,0.0,0.0,33,0.00,,---,0.00,VWS V13.01,2014-07-13 17:41:00,
2014-07-13 10:46:00,87.6,55.0,29.77,NW,304,0.0,0.0,33,0.00,,---,0.00,VWS V13.01,2014-07-13 17:46:00,
2014-07-13 10:51:00,87.6,55.0,29.79,NW,304,0.0,0.0,33,0.00,,---,0.00,VWS V13.01,2014-07-13 17:51:00,
2014-07-13 10:56:00,87.6,55.0,29.79,NW,304,0.0,0.0,33,0.00,,---,0.00,VWS V13.01,2014-07-13 17:56:00,
2014-07-13 11:01:00,87.6,55.0,29.79,NW,304,0.0,0.0,33,0.00,,---,0.00,VWS V13.01,2014-07-13 18:01:00,
2014-07-13 11:06:00,87.6,55.0,29.79,NW,304,0.0,0.0,33,0.00,,---,0.00,VWS V13.01,2014-07-13 18:06:00,
2014-07-13 11:11:00,87.6,55.0,29.79,NW,304,0.0,0.0,33,0.00,,---,0.00,VWS V13.01,2014-07-13 18:11:00,
2014-07-13 11:16:00,87.6,55.0,29.79,NW,304,0.0,0.0,33,0.00,,---,0.00,VWS V13.01,2014-07-13 18:16:00,
2014-07-13 11:21:00,87.6,55.0,29.80,NW,304,0.0,0.0,33,0.00,,---,0.00,VWS V13.01,2014-07-13 18:21:00,
2014-07-13 11:26:00,87.6,55.0,29.80,NW,304,0.0,0.0,33,0.00,,---,0.00,VWS V13.01,2014-07-13 18:26:00,
2014-07-13 11:31:00,87.6,55.0,29.80,NW,304,0.0,0.0,33,0.00,,---,0.00,VWS V13.01,2014-07-13 18:31:00,
2014-07-13 11:36:00,87.6,55.0,29.79,NW,304,0.0,0.0,33,0.00,,---,0.00,VWS V13.01,2014-07-13 18:36:00,
2014-07-13 11:41:00,87.6,55.0,29.79,NW,304,0.0,0.0,33,0.00,,---,0.00,VWS V13.01,2014-07-13 18:41:00,
2014-07-13 11:46:00,87.6,55.0,29.79,NW,304,0.0,0.0,33,0.00,,---,0.00,VWS V13.01,2014-07-13 18:46:00,
2014-07-13 11:51:00,87.6,55.0,29.79,NW,304,0.0,0.0,33,0.00,,---,0.00,VWS V13.01,2014-07-13 18:51:00,
2014-07-13 11:56:00,87.6,55.0,29.79,NW,304,0.0,0.0,33,0.00,,---,0.00,VWS V13.01,2014-07-13 18:56:00,
2014-07-13 12:01:00,87.6,55.0,29.79,NW,304,0.0,0.0,33,0.00,,---,0.00,VWS V13.01,2014-07-13 19:01:00,
2014-07-13 12:06:00,87.6,55.0,29.79,NW,304,0.0,0.0,33,0.00,,---,0.00,VWS V13.01,2014-07-13 19:06:00,
2014-07-13 12:11:00,87.6,55.0,29.79,NE,55,0.0,0.0,33,0.00,,---,0.00,VWS V13.01,2014-07-13 19:11:00,
2014-07-13 12:16:00,95.1,61.5,29.79,NNE,28,0.0,0.0,33,0.00,,---,0.00,VWS V13.01,2014-07-13 19:16:00,
2014-07-13 12:21:00,95.1,61.5,29.76,NNE,28,0.0,0.0,33,0.00,,---,0.00,VWS V13.01,2014-07-13 19:21:00,
2014-07-13 12:26:00,95.1,61.5,29.76,NNE,28,0.0,0.0,33,0.00,,---,0.00,VWS V13.01,2014-07-13 19:26:00,
2014-07-13 12:31:00,95.1,61.5,29.76,NNE,28,0.0,0.0,33,0.00,,---,0.00,VWS V13.01,2014-07-13 19:31:00,
2014-07-13 12:36:00,95.1,61.5,29.78,NNE,28,0.0,0.0,33,0.00,,---,0.00,VWS V13.01,2014-07-13 19:36:00,
2014-07-13 12:41:00,95.1,61.5,29.78,NNE,28,0.0,0.0,33,0.00,,---,0.00,VWS V13.01,2014-07-13 19:41:00,
2014-07-13 12:46:00,95.1,61.5,29.78,NNE,28,0.0,0.0,33,0.00,,---,0.00,VWS V13.01,2014-07-13 19:46:00,
2014-07-13 12:51:00,95.1,61.5,29.78,NNE,28,0.0,0.0,33,0.00,,---,0.00,VWS V13.01,2014-07-13 19:51:00,
2014-07-13 12:56:00,95.1,61.5,29.78,NNE,28,0.0,0.0,33,0.00,,---,0.00,VWS V13.01,2014-07-13 19:56:00,
2014-07-13 13:01:00,95.1,61.5,29.78,NNE,28,0.0,0.0,33,0.00,,---,0.00,VWS V13.01,2014-07-13 20:01:00,
2014-07-13 13:06:00,95.1,61.5,29.78,NNE,28,0.0,0.0,33,0.00,,---,0.00,VWS V13.01,2014-07-13 20:06:00,
2014-07-13 13:11:00,95.1,61.5,29.78,NNE,28,0.0,0.0,33,0.00,,---,0.00,VWS V13.01,2014-07-13 20:11:00,
2014-07-13 13:16:00,96.8,63.0,29.78,West,270,0.0,0.0,33,0.00,,---,0.00,VWS V13.01,2014-07-13 20:16:00,
2014-07-13 13:21:00,96.8,63.0,29.75,West,265,0.0,2.0,33,0.00,,---,0.00,VWS V13.01,2014-07-13 20:21:00,
2014-07-13 13:26:00,96.8,63.0,29.75,West,270,0.0,2.0,33,0.00,,---,0.00,VWS V13.01,2014-07-13 20:26:00,
2014-07-13 13:31:00,96.8,63.0,29.75,West,270,0.0,2.0,33,0.00,,---,0.00,VWS V13.01,2014-07-13 20:31:00,
2014-07-13 13:36:00,96.8,63.0,29.75,West,270,0.0,0.0,33,0.00,,---,0.00,VWS V13.01,2014-07-13 20:36:00,
2014-07-13 13:41:00,96.8,63.0,29.75,West,270,0.0,0.0,33,0.00,,---,0.00,VWS V13.01,2014-07-13 20:41:00,
2014-07-13 13:46:00,96.8,63.0,29.75,West,270,0.0,0.0,33,0.00,,---,0.00,VWS V13.01,2014-07-13 20:46:00,
2014-07-13 13:51:00,96.8,63.0,29.78,WSW,250,1.0,1.0,33,0.00,,---,0.00,VWS V13.01,2014-07-13 20:51:00,
2014-07-13 13:56:00,96.8,63.0,29.78,WSW,256,1.0,5.0,33,0.00,,---,0.00,VWS V13.01,2014-07-13 20:56:00,
2014-07-13 14:01:00,96.8,57.3,29.78,West,274,2.0,6.0,27,0.00,,---,0.00,VWS V13.01,2014-07-13 21:01:00,
2014-07-13 14:06:00,96.8,57.3,29.77,WSW,237,1.0,2.0,27,0.00,,---,0.00,VWS V13.01,2014-07-13 21:06:00,
2014-07-13 14:11:00,99.7,59.8,29.77,West,261,1.0,3.0,27,0.00,,---,0.00,VWS V13.01,2014-07-13 21:11:00,
2014-07-13 14:16:00,99.7,59.8,29.77,WSW,239,5.0,5.0,27,0.00,,---,0.00,VWS V13.01,2014-07-13 21:16:00,
2014-07-13 14:21:00,98.5,58.8,29.74,WSW,244,2.0,6.0,27,0.00,,---,0.00,VWS V13.01,2014-07-13 21:21:00,
2014-07-13 14:26:00,97.8,58.2,29.74,West,270,1.0,6.0,27,0.00,,---,0.00,VWS V13.01,2014-07-13 21:26:00,
2014-07-13 14:31:00,97.8,58.2,29.74,West,270,1.0,6.0,27,0.00,,---,0.00,VWS V13.01,2014-07-13 21:31:00,
2014-07-13 14:36:00,97.8,58.2,29.74,West,270,1.0,1.0,27,0.00,,---,0.00,VWS V13.01,2014-07-13 21:36:00,
2014-07-13 14:41:00,97.8,58.2,29.74,West,270,1.0,1.0,27,0.00,,---,0.00,VWS V13.01,2014-07-13 21:41:00,
2014-07-13 14:46:00,97.8,58.2,29.74,West,270,1.0,1.0,27,0.00,,---,0.00,VWS V13.01,2014-07-13 21:46:00,
2014-07-13 14:51:00,97.8,58.2,29.77,West,270,1.0,1.0,27,0.00,,---,0.00,VWS V13.01,2014-07-13 21:51:00,
2014-07-13 14:56:00,97.8,58.2,29.77,WSW,254,0.0,1.0,27,0.00,,---,0.00,VWS V13.01,2014-07-13 21:56:00,
2014-07-13 15:01:00,97.8,58.2,29.77,West,260,5.0,5.0,27,0.00,,---,0.00,VWS V13.01,2014-07-13 22:01:00,
2014-07-13 15:06:00,97.8,58.2,29.77,West,260,5.0,5.0,27,0.00,,---,0.00,VWS V13.01,2014-07-13 22:06:00,
2014-07-13 15:11:00,98.2,58.5,29.77,West,268,4.0,5.0,27,0.00,,---,0.00,VWS V13.01,2014-07-13 22:11:00,
2014-07-13 15:16:00,98.2,58.5,29.77,WSW,253,5.0,5.0,27,0.00,,---,0.00,VWS V13.01,2014-07-13 22:16:00,
2014-07-13 15:21:00,98.2,58.5,29.73,WSW,251,5.0,5.0,27,0.00,,---,0.00,VWS V13.01,2014-07-13 22:21:00,
2014-07-13 15:26:00,98.2,58.5,29.73,WSW,251,5.0,5.0,27,0.00,,---,0.00,VWS V13.01,2014-07-13 22:26:00,
2014-07-13 15:31:00,98.2,58.5,29.73,WSW,251,5.0,5.0,27,0.00,,---,0.00,VWS V13.01,2014-07-13 22:31:00,
2014-07-13 15:36:00,98.2,58.5,29.76,WSW,251,5.0,5.0,27,0.00,,---,0.00,VWS V13.01,2014-07-13 22:36:00,
2014-07-13 15:41:00,98.2,58.5,29.76,WSW,251,5.0,5.0,27,0.00,,---,0.00,VWS V13.01,2014-07-13 22:41:00,
2014-07-13 15:46:00,98.2,58.5,29.76,WSW,251,5.0,5.0,27,0.00,,---,0.00,VWS V13.01,2014-07-13 22:46:00,
2014-07-13 15:51:00,98.2,58.5,29.75,WSW,251,5.0,5.0,27,0.00,,---,0.00,VWS V13.01,2014-07-13 22:51:00,
2014-07-13 15:56:00,98.2,58.5,29.75,WSW,251,5.0,5.0,27,0.00,,---,0.00,VWS V13.01,2014-07-13 22:56:00,
2014-07-13 16:01:00,98.2,58.5,29.75,WSW,251,5.0,5.0,27,0.00,,---,0.00,VWS V13.01,2014-07-13 23:01:00,
2014-07-13 16:06:00,98.2,58.5,29.75,WSW,251,5.0,5.0,27,0.00,,---,0.00,VWS V13.01,2014-07-13 23:06:00,
2014-07-13 16:11:00,98.2,58.5,29.75,WSW,251,5.0,5.0,27,0.00,,---,0.00,VWS V13.01,2014-07-13 23:11:00,
2014-07-13 16:16:00,98.2,58.5,29.75,WSW,251,5.0,5.0,27,0.00,,---,0.00,VWS V13.01,2014-07-13 23:16:00,
2014-07-13 16:21:00,98.2,58.5,29.75,WSW,251,5.0,5.0,27,0.00,,---,0.00,VWS V13.01,2014-07-13 23:21:00,
2014-07-13 16:26:00,98.2,58.5,29.75,WSW,251,5.0,5.0,27,0.00,,---,0.00,VWS V13.01,2014-07-13 23:26:00,
2014-07-13 16:31:00,98.2,58.5,29.75,WSW,251,5.0,5.0,27,0.00,,---,0.00,VWS V13.01,2014-07-13 23:31:00,
2014-07-13 16:36:00,98.2,58.5,29.75,WSW,251,5.0,5.0,27,0.00,,---,0.00,VWS V13.01,2014-07-13 23:36:00,
2014-07-13 16:40:00,98.2,58.5,29.75,WSW,251,5.0,5.0,27,0.00,,---,0.00,VWS V13.01,2014-07-13 23:40:00,
2014-07-13 16:45:00,98.2,58.5,29.75,WSW,251,5.0,5.0,27,0.00,,---,0.00,VWS V13.01,2014-07-13 23:45:00,
2014-07-13 16:50:00,98.2,58.5,29.75,WSW,251,5.0,5.0,27,0.00,,---,0.00,VWS V13.01,2014-07-13 23:50:00,
2014-07-13 16:55:00,98.2,58.5,29.75,WSW,251,5.0,5.0,27,0.00,,---,0.00,VWS V13.01,2014-07-13 23:55:00,
2014-07-13 17:00:00,98.2,58.5,29.75,WSW,251,5.0,5.0,27,0.00,,---,0.00,VWS V13.01,2014-07-14 00:00:00,
2014-07-13 17:05:00,98.2,58.5,29.75,WSW,251,5.0,5.0,27,0.00,,---,0.00,VWS V13.01,2014-07-14 00:05:00,
2014-07-13 17:10:00,98.2,58.5,29.75,WSW,251,5.0,5.0,27,0.00,,---,0.00,VWS V13.01,2014-07-14 00:10:00,
2014-07-13 17:15:00,98.2,58.5,29.75,WSW,251,5.0,5.0,27,0.00,,---,0.00,VWS V13.01,2014-07-14 00:15:00,
2014-07-13 17:20:00,98.2,58.5,29.75,WSW,251,5.0,5.0,27,0.00,,---,0.00,VWS V13.01,2014-07-14 00:20:00,
2014-07-13 17:25:00,98.2,58.5,29.75,WSW,251,5.0,5.0,27,0.00,,---,0.00,VWS V13.01,2014-07-14 00:25:00,
2014-07-13 17:30:00,98.2,58.5,29.75,WSW,251,5.0,5.0,27,0.00,,---,0.00,VWS V13.01,2014-07-14 00:30:00,
2014-07-13 17:35:00,98.2,58.5,29.75,WSW,251,5.0,5.0,27,0.00,,---,0.00,VWS V13.01,2014-07-14 00:35:00,
2014-07-13 17:40:00,98.2,58.5,29.75,WSW,251,5.0,5.0,27,0.00,,---,0.00,VWS V13.01,2014-07-14 00:40:00,
2014-07-13 17:45:00,98.2,58.5,29.75,WSW,251,5.0,5.0,27,0.00,,---,0.00,VWS V13.01,2014-07-14 00:45:00,
2014-07-13 17:50:00,98.2,58.5,29.75,WSW,251,5.0,5.0,27,0.00,,---,0.00,VWS V13.01,2014-07-14 00:50:00,
2014-07-13 17:55:00,98.2,58.5,29.75,WSW,251,5.0,5.0,27,0.00,,---,0.00,VWS V13.01,2014-07-14 00:55:00,
2014-07-13 18:00:00,98.2,58.5,29.75,WSW,251,5.0,5.0,27,0.00,,---,0.00,VWS V13.01,2014-07-14 01:00:00,
2014-07-13 18:05:00,98.2,58.5,29.75,WSW,251,5.0,5.0,27,0.00,,---,0.00,VWS V13.01,2014-07-14 01:05:00,
2014-07-13 18:10:00,98.2,58.5,29.75,WSW,251,5.0,5.0,27,0.00,,---,0.00,VWS V13.01,2014-07-14 01:10:00,
2014-07-13 18:15:00,98.2,58.5,29.75,WSW,251,5.0,5.0,27,0.00,,---,0.00,VWS V13.01,2014-07-14 01:15:00,
2014-07-13 18:20:00,98.2,58.5,29.75,WSW,251,5.0,5.0,27,0.00,,---,0.00,VWS V13.01,2014-07-14 01:20:00,
2014-07-13 18:25:00,98.2,58.5,29.75,WSW,251,5.0,5.0,27,0.00,,---,0.00,VWS V13.01,2014-07-14 01:25:00,
2014-07-13 18:30:00,98.2,58.5,29.75,WSW,251,5.0,5.0,27,0.00,,---,0.00,VWS V13.01,2014-07-14 01:30:00,
2014-07-13 18:35:00,98.2,58.5,29.75,WSW,251,5.0,5.0,27,0.00,,---,0.00,VWS V13.01,2014-07-14 01:35:00,
2014-07-13 18:40:00,98.2,58.5,29.75,WSW,251,5.0,5.0,27,0.00,,---,0.00,VWS V13.01,2014-07-14 01:40:00,
2014-07-13 18:45:00,98.2,58.5,29.75,WSW,251,5.0,5.0,27,0.00,,---,0.00,VWS V13.01,2014-07-14 01:45:00,
2014-07-13 18:50:00,98.2,58.5,29.75,WSW,251,5.0,5.0,27,0.00,,---,0.00,VWS V13.01,2014-07-14 01:50:00,
2014-07-13 18:55:00,98.2,58.5,29.75,WSW,251,5.0,5.0,27,0.00,,---,0.00,VWS V13.01,2014-07-14 01:55:00,
2014-07-13 19:00:00,98.2,58.5,29.75,WSW,251,5.0,5.0,27,0.00,,---,0.00,VWS V13.01,2014-07-14 02:00:00,